CheckWX is a tool to help pilots better visualize weather data.  It is not intended as a substitute for an official pre-flight weather briefing.

08:42:29 UTC

KMMV METAR
Mc Minnville Municipal Airport
Mc Minnville, Oregon, USA
Current

49 mins ago

KMMV 210753Z AUTO 00000KT 7SM BKN075 OVC100 06/04 A2968 RMK AO2 SLP049 T00560044 400890039 $
Observed
Jan-21 @ 07:53 UTC
Visibility
7 SM
Flight Rules
VFR
Cloud Levels
  • Broken at 7,500' AGL
  • Overcast at 10,000' AGL
Temperature
C / 43°F
Dewpoint
C / 39°F
Humidity
87%
Altimeter
29.68" Hg
Pressure
1005.12 hPa
Previous

2 hours ago

KMMV 210653Z AUTO 02004KT 5SM BR OVC080 05/04 A2969 RMK AO2 SLP055 T00500044 $
Observed
Jan-21 @ 06:53 UTC
Wind
  • 020° at 4 KTS
Visibility
5 SM
Flight Rules
MVFR
Conditions
Mist
Cloud Levels
  • Overcast at 8,000' AGL
Temperature
C / 41°F
Dewpoint
C / 39°F
Humidity
93%
Altimeter
29.69" Hg
Pressure
1005.42 hPa
Previous

3 hours ago

KMMV 210553Z AUTO 30003KT 7SM OVC090 06/04 A2973 RMK AO2 SLP068 T00560044 10083 20044 56022 $
Observed
Jan-21 @ 05:53 UTC
Wind
  • 300° at 3 KTS
Visibility
7 SM
Flight Rules
VFR
Cloud Levels
  • Overcast at 9,000' AGL
Temperature
C / 43°F
Dewpoint
C / 39°F
Humidity
87%
Altimeter
29.73" Hg
Pressure
1006.82 hPa